Time;durP1;ratioP1;P1;durP2;ratioP2;P2;SDS_P1;SDS_P2;PMS_P1;PMS_P2;Temp;Humidity;BMP_temperature;BMP_pressure;BME280_temperature;BME280_humidity;BME280_pressure;Samples;Min_cycle;Max_cycle;Signal;HPM_P1;HPM_P2
2023/09/07 03:32:32;;;;;;;3.30;2.93;;;13.80;99.90;;;;;;5251440;22;20468;-96
2023/09/07 03:34:59;;;;;;;3.30;3.00;;;13.80;99.90;;;;;;5057989;28;20502;-95
2023/09/07 03:37:26;;;;;;;3.17;2.90;;;13.80;99.90;;;;;;5057588;28;20442;-96
2023/09/07 03:39:54;;;;;;;3.50;3.20;;;13.70;99.90;;;;;;5058006;28;20428;-96
2023/09/07 03:42:20;;;;;;;3.10;2.80;;;13.80;99.90;;;;;;5057770;28;20471;-96
2023/09/07 03:44:47;;;;;;;3.30;3.00;;;13.70;99.90;;;;;;5107472;22;20511;-66
2023/09/07 03:47:16;;;;;;;2.70;2.50;;;13.70;99.90;;;;;;5029871;28;20837;-66
2023/09/07 03:49:44;;;;;;;2.80;2.60;;;13.70;99.90;;;;;;5030199;28;20456;-66
2023/09/07 03:52:11;;;;;;;3.10;2.90;;;13.70;99.90;;;;;;5022700;28;20556;-65
2023/09/07 03:54:38;;;;;;;3.97;2.93;;;13.70;99.90;;;;;;5030164;28;20453;-66
2023/09/07 03:57:05;;;;;;;3.17;2.87;;;13.70;99.90;;;;;;5016518;28;20476;-65
2023/09/07 03:59:32;;;;;;;4.60;3.60;;;13.60;99.90;;;;;;5026984;28;20460;-65
2023/09/07 04:01:58;;;;;;;5.37;3.30;;;13.60;99.90;;;;;;5022593;28;20479;-65
2023/09/07 04:04:25;;;;;;;3.10;2.80;;;13.60;99.90;;;;;;5014670;28;20481;-65
2023/09/07 04:06:55;;;;;;;3.20;2.87;;;13.60;99.90;;;;;;5021422;28;20459;-65
2023/09/07 04:09:22;;;;;;;3.97;3.33;;;13.60;99.90;;;;;;5015322;28;20457;-65
2023/09/07 04:11:48;;;;;;;3.27;3.03;;;13.50;99.90;;;;;;5012863;28;20484;-66
2023/09/07 04:14:15;;;;;;;3.43;3.13;;;13.50;99.90;;;;;;5022071;28;20456;-66
2023/09/07 04:16:42;;;;;;;2.97;2.67;;;13.50;99.90;;;;;;5029731;28;20460;-66
2023/09/07 04:19:10;;;;;;;3.20;2.90;;;13.50;99.90;;;;;;5029574;28;20461;-67
2023/09/07 04:21:37;;;;;;;3.47;3.17;;;13.50;99.90;;;;;;5030208;28;20480;-66
2023/09/07 04:24:05;;;;;;;3.37;3.07;;;13.50;99.90;;;;;;5029981;28;21153;-66
2023/09/07 04:26:32;;;;;;;3.37;3.07;;;13.40;99.90;;;;;;5021897;28;20460;-66
2023/09/07 04:28:59;;;;;;;3.10;2.80;;;13.40;99.90;;;;;;5029531;28;20453;-65
2023/09/07 04:31:27;;;;;;;3.63;3.07;;;13.40;99.90;;;;;;5030036;28;20473;-66
2023/09/07 04:33:54;;;;;;;3.37;3.07;;;13.40;99.90;;;;;;5029731;28;20488;-66
2023/09/07 04:36:20;;;;;;;4.60;3.50;;;13.40;99.90;;;;;;5030397;28;20468;-66
2023/09/07 04:38:47;;;;;;;3.07;2.77;;;13.40;99.90;;;;;;5027914;28;20460;-66
2023/09/07 04:41:16;;;;;;;3.47;3.00;;;13.40;99.90;;;;;;5018774;28;20484;-66
2023/09/07 04:43:43;;;;;;;2.93;2.60;;;13.30;99.90;;;;;;5033653;28;20480;-66
2023/09/07 04:46:10;;;;;;;3.90;3.47;;;13.30;99.90;;;;;;5021150;28;21018;-66
2023/09/07 04:48:37;;;;;;;3.37;3.07;;;13.30;99.90;;;;;;5030205;28;20463;-65
2023/09/07 04:51:05;;;;;;;4.00;3.60;;;13.30;99.90;;;;;;5029142;28;20454;-66
2023/09/07 04:53:34;;;;;;;3.80;3.10;;;13.30;99.90;;;;;;5021861;28;20201;-65
2023/09/07 04:56:01;;;;;;;4.10;2.90;;;13.30;99.90;;;;;;5013776;28;20453;-66
2023/09/07 04:58:30;;;;;;;3.60;3.30;;;13.20;99.90;;;;;;5017273;28;20967;-66
2023/09/07 05:01:03;;;;;;;3.50;3.20;;;13.20;99.90;;;;;;5013417;28;20480;-65
2023/09/07 05:03:30;;;;;;;5.47;3.03;;;13.20;99.90;;;;;;5029152;28;20480;-65
2023/09/07 05:05:57;;;;;;;3.80;3.40;;;13.20;99.90;;;;;;5025123;28;20472;-66
2023/09/07 05:08:24;;;;;;;3.03;2.80;;;13.20;99.90;;;;;;5033501;28;20858;-66
2023/09/07 05:10:55;;;;;;;3.50;3.20;;;13.20;99.90;;;;;;5022725;28;20481;-65
2023/09/07 05:13:22;;;;;;;3.60;2.80;;;13.20;99.90;;;;;;5013462;28;20450;-65
2023/09/07 05:15:50;;;;;;;3.97;3.40;;;13.20;99.90;;;;;;5023133;28;20457;-65
2023/09/07 05:18:17;;;;;;;3.33;3.03;;;13.20;99.90;;;;;;5032765;28;20456;-65
2023/09/07 05:20:45;;;;;;;3.97;3.40;;;13.20;99.90;;;;;;5032641;28;20986;-66
2023/09/07 05:23:15;;;;;;;3.53;3.20;;;13.20;99.90;;;;;;5022181;28;20477;-65
2023/09/07 05:25:45;;;;;;;4.53;3.37;;;13.20;99.90;;;;;;5013507;28;20458;-66
2023/09/07 05:28:13;;;;;;;3.37;3.07;;;13.30;99.90;;;;;;5012790;28;20458;-65
2023/09/07 05:30:40;;;;;;;4.57;3.60;;;13.30;99.90;;;;;;5012945;28;20844;-65
2023/09/07 05:33:08;;;;;;;4.37;3.97;;;13.30;99.90;;;;;;5032636;28;20449;-66
2023/09/07 05:35:35;;;;;;;3.90;3.57;;;13.30;99.90;;;;;;5032803;28;20962;-66
2023/09/07 05:38:01;;;;;;;4.10;3.33;;;13.40;99.90;;;;;;5031749;28;20471;-65
2023/09/07 05:40:28;;;;;;;4.97;3.80;;;13.50;99.90;;;;;;5032445;28;20464;-65
2023/09/07 05:42:55;;;;;;;3.60;3.30;;;13.50;99.90;;;;;;5023795;28;20538;-65
2023/09/07 05:45:21;;;;;;;3.50;3.00;;;13.50;99.90;;;;;;5018586;28;20493;-65
2023/09/07 05:47:48;;;;;;;4.53;3.70;;;13.60;99.90;;;;;;5011850;28;20457;-65
2023/09/07 05:50:16;;;;;;;3.90;3.60;;;13.60;99.90;;;;;;5012316;28;20468;-65
2023/09/07 05:52:43;;;;;;;4.03;3.63;;;13.60;99.90;;;;;;5012244;28;20461;-65
2023/09/07 05:55:10;;;;;;;4.37;3.30;;;13.60;99.90;;;;;;5012469;28;20845;-66
2023/09/07 05:57:37;;;;;;;3.30;3.00;;;13.70;99.90;;;;;;5027284;28;20955;-65
2023/09/07 06:00:04;;;;;;;3.90;3.60;;;13.70;99.90;;;;;;5012348;28;20461;-66
2023/09/07 06:02:31;;;;;;;3.83;3.40;;;13.80;99.90;;;;;;5011831;28;20477;-65
2023/09/07 06:04:58;;;;;;;3.73;3.40;;;13.80;99.90;;;;;;5011522;28;20485;-65
2023/09/07 06:07:27;;;;;;;4.13;3.43;;;13.90;99.90;;;;;;5011820;28;20458;-66
2023/09/07 06:09:53;;;;;;;3.40;3.10;;;13.90;99.90;;;;;;5020195;28;20464;-65
2023/09/07 06:12:20;;;;;;;4.77;3.77;;;14.00;99.90;;;;;;5012323;28;20489;-66
2023/09/07 06:14:47;;;;;;;5.63;4.33;;;14.10;99.90;;;;;;5011892;28;20983;-66
2023/09/07 06:17:13;;;;;;;4.50;3.87;;;14.10;99.90;;;;;;5019590;28;20516;-66
2023/09/07 06:19:40;;;;;;;3.90;3.50;;;14.20;99.90;;;;;;5011937;28;20842;-66
2023/09/07 06:22:07;;;;;;;5.93;4.13;;;14.30;99.90;;;;;;5011746;28;20481;-66
2023/09/07 06:24:35;;;;;;;5.37;4.40;;;14.40;99.90;;;;;;5011816;28;20477;-66
2023/09/07 06:27:02;;;;;;;5.07;4.53;;;14.50;99.90;;;;;;5030026;28;20539;-66
2023/09/07 06:29:28;;;;;;;5.83;4.87;;;14.70;99.90;;;;;;5025978;28;20837;-66
2023/09/07 06:31:55;;;;;;;9.80;5.50;;;14.80;99.90;;;;;;5011464;28;20477;-65
2023/09/07 06:34:22;;;;;;;7.10;5.43;;;14.90;99.90;;;;;;5010146;28;20836;-66
2023/09/07 06:36:48;;;;;;;6.00;5.30;;;15.00;99.90;;;;;;5015136;28;20835;-65
2023/09/07 06:39:15;;;;;;;5.87;4.87;;;15.10;99.90;;;;;;5023011;28;20461;-65
2023/09/07 06:41:46;;;;;;;9.43;5.30;;;15.30;99.90;;;;;;5007774;28;20823;-68
2023/09/07 06:44:13;;;;;;;9.37;5.73;;;15.30;99.90;;;;;;5020560;28;20480;-66
2023/09/07 06:46:45;;;;;;;8.70;6.30;;;15.50;99.90;;;;;;5020627;28;20862;-68
2023/09/07 06:49:12;;;;;;;5.83;5.27;;;15.60;99.90;;;;;;5009012;28;20556;-66
2023/09/07 06:51:39;;;;;;;8.33;5.30;;;15.70;99.90;;;;;;5017003;28;20485;-67
2023/09/07 06:54:06;;;;;;;6.30;5.67;;;15.80;99.90;;;;;;5084781;22;20566;-70
2023/09/07 06:56:34;;;;;;;7.20;5.30;;;15.90;99.90;;;;;;5021713;28;20827;-70
2023/09/07 06:59:02;;;;;;;7.33;6.00;;;16.00;99.90;;;;;;5025371;28;20453;-70
2023/09/07 07:01:29;;;;;;;6.10;5.33;;;16.10;99.90;;;;;;5014661;28;20478;-70
2023/09/07 07:03:56;;;;;;;6.07;5.23;;;16.30;99.90;;;;;;5008108;28;20503;-70
2023/09/07 07:06:23;;;;;;;5.33;4.83;;;16.40;99.90;;;;;;5008653;28;20473;-67
2023/09/07 07:08:50;;;;;;;7.70;4.77;;;16.50;99.90;;;;;;5006595;28;20551;-67
2023/09/07 07:11:17;;;;;;;6.20;5.03;;;16.60;99.90;;;;;;5008102;28;20968;-67
2023/09/07 07:13:47;;;;;;;4.63;4.23;;;16.70;99.90;;;;;;5010397;28;20459;-67
2023/09/07 07:16:16;;;;;;;5.40;4.70;;;16.80;99.90;;;;;;5004088;28;20463;-67
2023/09/07 07:18:43;;;;;;;5.87;5.03;;;17.00;99.90;;;;;;5010084;28;20467;-66
2023/09/07 07:21:10;;;;;;;5.23;4.73;;;17.10;99.90;;;;;;5009689;28;20706;-67
2023/09/07 07:23:37;;;;;;;5.27;4.60;;;17.10;99.90;;;;;;5009242;28;20879;-67
2023/09/07 07:26:04;;;;;;;4.73;4.23;;;17.20;99.90;;;;;;5010582;28;20464;-66
2023/09/07 07:28:31;;;;;;;5.90;5.30;;;17.40;99.90;;;;;;5010896;28;20973;-67
2023/09/07 07:30:57;;;;;;;5.30;4.70;;;17.50;99.90;;;;;;5010930;28;20490;-67
2023/09/07 07:33:25;;;;;;;5.43;4.90;;;17.60;99.90;;;;;;5011358;28;20933;-66
2023/09/07 07:35:52;;;;;;;6.00;5.23;;;17.70;99.90;;;;;;5009012;28;20463;-66
2023/09/07 07:38:19;;;;;;;4.50;4.00;;;17.90;99.90;;;;;;5010916;28;20839;-67
2023/09/07 07:40:46;;;;;;;5.87;5.27;;;18.00;99.90;;;;;;5010932;28;20487;-67
2023/09/07 07:43:13;;;;;;;5.30;4.80;;;18.10;99.90;;;;;;5010771;28;20461;-67
2023/09/07 07:45:39;;;;;;;6.03;5.43;;;18.30;99.90;;;;;;5010840;28;20468;-67
2023/09/07 07:48:07;;;;;;;5.00;4.50;;;18.40;99.90;;;;;;5010198;28;20468;-66
2023/09/07 07:50:39;;;;;;;5.80;5.20;;;18.50;99.90;;;;;;5010422;28;20493;-67
2023/09/07 07:53:06;;;;;;;6.00;5.20;;;18.70;99.90;;;;;;5010932;28;20464;-67
2023/09/07 07:55:38;;;;;;;6.77;4.90;;;18.80;99.90;;;;;;5010243;28;20519;-67
2023/09/07 07:58:05;;;;;;;8.23;5.40;;;18.80;99.90;;;;;;5009705;28;20476;-66
2023/09/07 08:00:32;;;;;;;5.70;5.20;;;18.90;99.90;;;;;;5006283;28;20466;-67
2023/09/07 08:02:59;;;;;;;5.77;5.27;;;19.10;99.90;;;;;;4997774;28;20476;-67
2023/09/07 08:05:25;;;;;;;4.40;4.00;;;19.20;99.90;;;;;;5009799;28;20473;-67
2023/09/07 08:07:54;;;;;;;5.40;4.90;;;19.40;99.90;;;;;;5009308;28;20462;-68
2023/09/07 08:10:21;;;;;;;5.03;4.53;;;19.50;99.90;;;;;;5009246;28;20516;-67
2023/09/07 08:12:48;;;;;;;5.17;4.73;;;19.60;99.90;;;;;;5009883;28;21007;-67
2023/09/07 08:15:15;;;;;;;4.77;4.20;;;19.70;99.90;;;;;;5013087;28;20844;-67
2023/09/07 08:17:41;;;;;;;5.17;4.67;;;19.90;99.90;;;;;;5014053;28;20466;-67
2023/09/07 08:20:11;;;;;;;4.83;4.40;;;20.00;99.90;;;;;;5014408;28;20461;-67
2023/09/07 08:22:40;;;;;;;5.20;4.80;;;20.20;99.90;;;;;;5014038;28;20473;-67
2023/09/07 08:25:12;;;;;;;4.97;4.57;;;20.30;99.90;;;;;;5013543;28;20486;-67
2023/09/07 08:27:39;;;;;;;5.27;4.70;;;20.50;99.90;;;;;;5013168;28;20468;-67
2023/09/07 08:30:07;;;;;;;4.30;3.90;;;20.60;99.90;;;;;;5013488;28;20453;-67
2023/09/07 08:32:34;;;;;;;4.60;4.20;;;20.80;99.90;;;;;;5013756;28;21050;-67
2023/09/07 08:35:03;;;;;;;6.00;4.77;;;20.90;99.90;;;;;;5012563;28;20530;-67
2023/09/07 08:37:30;;;;;;;4.87;3.90;;;21.00;99.90;;;;;;5012716;28;20456;-67
2023/09/07 08:39:57;;;;;;;4.73;4.33;;;21.20;99.90;;;;;;5013311;28;20534;-67
2023/09/07 08:42:25;;;;;;;5.10;4.60;;;21.30;99.90;;;;;;5013203;28;20566;-67
2023/09/07 08:44:58;;;;;;;4.67;4.20;;;21.40;99.90;;;;;;5008067;28;21041;-67
2023/09/07 08:47:27;;;;;;;5.83;3.90;;;21.60;99.90;;;;;;5005450;28;20461;-66
2023/09/07 08:49:55;;;;;;;4.70;4.30;;;21.70;99.90;;;;;;5012804;28;20465;-66
2023/09/07 08:52:22;;;;;;;4.63;4.23;;;21.80;99.90;;;;;;5012569;28;20472;-66
2023/09/07 08:54:49;;;;;;;6.70;4.50;;;21.90;99.90;;;;;;5011977;28;20543;-66
2023/09/07 08:57:17;;;;;;;5.60;3.83;;;22.10;99.90;;;;;;5012563;28;20777;-67
2023/09/07 08:59:45;;;;;;;5.13;4.63;;;22.20;99.90;;;;;;5012031;28;20460;-66
2023/09/07 09:02:12;;;;;;;4.83;4.03;;;22.30;99.90;;;;;;5012883;28;20477;-66
2023/09/07 09:04:40;;;;;;;5.00;4.50;;;22.40;99.90;;;;;;5012341;28;20886;-66
2023/09/07 09:07:06;;;;;;;5.30;3.60;;;22.50;99.90;;;;;;5011450;28;20461;-66
2023/09/07 09:09:33;;;;;;;4.23;3.90;;;22.60;99.90;;;;;;5012752;28;20955;-66
2023/09/07 09:12:08;;;;;;;3.93;3.40;;;22.80;99.90;;;;;;5013177;28;20481;-66
2023/09/07 09:14:34;;;;;;;5.60;4.97;;;22.90;99.90;;;;;;5005900;28;20452;-67
2023/09/07 09:17:02;;;;;;;4.77;4.37;;;23.10;99.90;;;;;;5011677;28;20453;-67
2023/09/07 09:19:33;;;;;;;5.30;4.13;;;23.10;99.90;;;;;;5012066;28;20458;-66
2023/09/07 09:21:59;;;;;;;4.40;3.97;;;23.20;99.90;;;;;;5011928;28;20544;-66
2023/09/07 09:24:26;;;;;;;4.10;3.80;;;23.30;99.90;;;;;;5011911;28;20481;-67
2023/09/07 09:29:28;;;;;;;4.93;4.30;;;23.50;99.90;;;;;;5174586;23;20500;-66
2023/09/07 09:31:55;;;;;;;4.90;4.40;;;23.60;99.90;;;;;;5012599;28;20492;-66
2023/09/07 09:34:23;;;;;;;5.17;4.60;;;23.60;99.90;;;;;;5012836;28;20511;-66
2023/09/07 09:36:50;;;;;;;5.60;4.83;;;23.60;99.90;;;;;;5011743;28;20454;-66
2023/09/07 09:39:24;;;;;;;4.57;4.17;;;23.70;99.90;;;;;;5011492;28;20461;-66
2023/09/07 09:41:51;;;;;;;5.00;4.50;;;23.50;99.90;;;;;;5011649;28;20979;-66
2023/09/07 09:44:21;;;;;;;5.23;4.73;;;23.60;99.90;;;;;;5011591;28;20539;-66
2023/09/07 09:46:50;;;;;;;4.90;4.50;;;23.70;99.90;;;;;;5011748;28;20970;-66
2023/09/07 09:49:18;;;;;;;4.90;4.43;;;23.80;99.90;;;;;;5011455;28;20457;-66
2023/09/07 09:51:48;;;;;;;4.77;4.37;;;24.00;99.90;;;;;;5011741;28;20565;-66
2023/09/07 09:54:17;;;;;;;4.50;4.10;;;24.10;99.90;;;;;;5011974;28;20450;-66
2023/09/07 09:56:44;;;;;;;5.37;4.83;;;24.20;99.90;;;;;;5012242;28;20462;-66
2023/09/07 09:59:11;;;;;;;4.40;4.00;;;24.30;99.90;;;;;;5011568;28;20453;-66
2023/09/07 10:01:44;;;;;;;4.60;4.20;;;24.30;99.90;;;;;;5011940;28;20477;-66
2023/09/07 10:04:13;;;;;;;5.00;4.60;;;24.30;99.90;;;;;;5011970;28;20468;-66
2023/09/07 10:06:50;;;;;;;5.77;5.20;;;24.40;99.90;;;;;;5011604;28;20549;-66
2023/09/07 10:09:19;;;;;;;4.67;4.27;;;24.60;99.90;;;;;;5011314;28;20453;-66
2023/09/07 10:11:53;;;;;;;4.57;3.90;;;24.80;99.90;;;;;;5011843;28;20485;-66
2023/09/07 10:14:20;;;;;;;4.50;4.10;;;24.90;99.90;;;;;;5011648;28;20452;-66
2023/09/07 10:16:49;;;;;;;4.67;4.27;;;25.10;99.90;;;;;;5011263;28;20460;-66
2023/09/07 10:19:17;;;;;;;4.77;4.27;;;25.10;99.90;;;;;;5010408;28;21078;-66
2023/09/07 10:21:44;;;;;;;5.40;4.90;;;25.20;99.90;;;;;;5011244;28;20473;-66
2023/09/07 10:24:12;;;;;;;4.10;3.80;;;25.40;99.90;;;;;;5011512;28;20486;-66
2023/09/07 10:26:40;;;;;;;4.40;4.00;;;25.50;99.90;;;;;;5011822;28;20968;-66
2023/09/07 10:29:07;;;;;;;5.17;4.30;;;25.60;99.90;;;;;;5011442;28;20457;-66
2023/09/07 10:31:34;;;;;;;5.67;4.67;;;25.70;99.90;;;;;;5003623;28;20481;-66
2023/09/07 10:34:12;;;;;;;4.40;4.10;;;25.70;99.90;;;;;;5011209;28;21084;-66
2023/09/07 10:36:39;;;;;;;4.20;3.80;;;25.80;99.90;;;;;;5004035;28;20469;-66
2023/09/07 10:39:06;;;;;;;5.40;4.77;;;25.90;99.90;;;;;;5010120;28;20512;-66
2023/09/07 10:41:44;;;;;;;4.67;4.20;;;26.00;99.90;;;;;;5011440;28;20827;-66
2023/09/07 10:44:12;;;;;;;4.47;4.07;;;26.20;99.90;;;;;;5011233;28;20464;-66
2023/09/07 10:46:39;;;;;;;4.70;4.30;;;26.40;99.90;;;;;;5011468;28;20972;-66
2023/09/07 10:49:10;;;;;;;4.30;3.90;;;26.50;99.90;;;;;;5011153;28;20519;-66
2023/09/07 10:51:42;;;;;;;4.50;4.10;;;26.60;99.90;;;;;;5077237;22;20493;-67
2023/09/07 10:54:15;;;;;;;4.30;3.90;;;26.70;99.90;;;;;;5026335;28;20517;-66
2023/09/07 10:56:45;;;;;;;4.80;4.40;;;26.70;99.90;;;;;;5017991;28;20486;-67
2023/09/07 10:59:11;;;;;;;5.30;4.80;;;26.80;99.90;;;;;;5018807;28;20480;-67
2023/09/07 11:01:38;;;;;;;4.90;3.97;;;26.80;99.90;;;;;;5021545;28;20481;-67
2023/09/07 11:04:08;;;;;;;4.57;4.17;;;26.80;99.90;;;;;;5010662;28;20840;-68
2023/09/07 11:06:35;;;;;;;4.87;4.47;;;26.80;99.90;;;;;;5019328;28;20477;-67
2023/09/07 11:09:04;;;;;;;4.40;4.00;;;26.90;99.90;;;;;;5016915;28;20831;-67
2023/09/07 11:11:34;;;;;;;4.97;4.43;;;27.10;99.90;;;;;;5028539;28;21001;-67
2023/09/07 11:14:03;;;;;;;5.27;4.40;;;27.20;99.90;;;;;;5021508;28;20498;-67
2023/09/07 11:16:30;;;;;;;4.80;4.30;;;27.30;99.90;;;;;;5028866;28;20480;-67
2023/09/07 11:18:58;;;;;;;4.93;4.37;;;27.40;99.90;;;;;;5028755;28;20461;-67
2023/09/07 11:21:25;;;;;;;4.20;3.80;;;27.50;99.90;;;;;;5019664;28;20501;-68
2023/09/07 11:23:53;;;;;;;4.63;4.23;;;27.60;99.90;;;;;;5009710;28;20471;-67
2023/09/07 11:26:19;;;;;;;4.50;4.10;;;27.70;99.90;;;;;;5009886;28;20484;-66
2023/09/07 11:28:56;;;;;;;4.70;4.30;;;27.80;99.90;;;;;;5009477;28;20985;-67
2023/09/07 11:31:24;;;;;;;4.50;4.10;;;27.90;99.90;;;;;;5009973;28;20501;-67
2023/09/07 11:33:51;;;;;;;5.10;4.60;;;28.00;99.90;;;;;;5008583;28;20454;-67
2023/09/07 11:36:18;;;;;;;4.40;4.10;;;28.00;99.90;;;;;;5009881;28;20449;-67
2023/09/07 11:38:45;;;;;;;6.33;4.03;;;28.00;99.90;;;;;;5009296;28;20551;-67
2023/09/07 11:41:13;;;;;;;4.10;3.80;;;28.10;99.90;;;;;;5009416;28;20482;-67
2023/09/07 11:43:41;;;;;;;4.47;4.07;;;28.20;99.90;;;;;;5021080;28;20531;-67
2023/09/07 11:46:09;;;;;;;4.57;4.17;;;28.40;99.90;;;;;;5020730;28;20484;-67
2023/09/07 11:48:38;;;;;;;4.80;3.80;;;28.50;99.90;;;;;;5027929;28;20555;-68
2023/09/07 11:51:05;;;;;;;3.80;3.50;;;28.60;99.90;;;;;;5029303;28;20583;-68
2023/09/07 11:53:32;;;;;;;4.97;4.57;;;28.60;99.90;;;;;;5026975;28;20540;-67
2023/09/07 11:55:59;;;;;;;4.33;3.97;;;28.70;99.90;;;;;;5009309;28;20484;-67
2023/09/07 11:58:26;;;;;;;4.40;4.00;;;28.70;99.90;;;;;;5017873;28;20461;-68
2023/09/07 12:00:53;;;;;;;4.53;4.13;;;28.70;99.90;;;;;;5009768;28;20484;-68
2023/09/07 12:03:20;;;;;;;4.70;4.30;;;28.90;99.90;;;;;;5009019;28;20933;-68
2023/09/07 12:05:48;;;;;;;4.27;3.97;;;29.00;99.90;;;;;;5009829;28;20461;-68
2023/09/07 12:08:15;;;;;;;4.30;3.70;;;29.00;99.90;;;;;;5008928;28;20848;-67
2023/09/07 12:10:42;;;;;;;9.80;4.57;;;29.10;99.90;;;;;;5008679;28;20910;-68
2023/09/07 12:13:10;;;;;;;5.57;3.80;;;29.10;99.90;;;;;;5009226;28;20469;-68
2023/09/07 12:15:37;;;;;;;4.20;3.90;;;29.10;99.90;;;;;;5009381;28;20568;-68
2023/09/07 12:18:04;;;;;;;5.20;4.77;;;29.10;99.90;;;;;;5008519;28;20461;-68
2023/09/07 12:20:31;;;;;;;4.23;3.80;;;29.20;99.90;;;;;;5019509;28;20491;-68
2023/09/07 12:22:59;;;;;;;4.50;4.10;;;29.30;99.90;;;;;;5028326;28;20463;-68
2023/09/07 12:25:26;;;;;;;4.50;4.10;;;29.40;99.90;;;;;;5028928;28;20463;-67
2023/09/07 12:27:56;;;;;;;4.80;4.37;;;29.50;99.90;;;;;;5028409;28;20465;-68
2023/09/07 12:30:24;;;;;;;4.03;3.73;;;29.60;99.90;;;;;;5017429;28;20457;-68
2023/09/07 12:32:52;;;;;;;4.43;4.03;;;29.70;99.90;;;;;;5009073;28;20497;-68
2023/09/07 12:35:19;;;;;;;3.77;3.47;;;29.60;99.90;;;;;;4993624;28;21098;-67
2023/09/07 12:37:46;;;;;;;4.20;3.90;;;29.70;99.90;;;;;;4995875;28;20478;-67
2023/09/07 12:40:16;;;;;;;3.83;3.53;;;29.70;99.90;;;;;;5000946;28;20969;-68
2023/09/07 12:42:49;;;;;;;4.30;4.00;;;29.80;99.90;;;;;;4991988;28;20455;-68
2023/09/07 12:45:16;;;;;;;4.27;3.97;;;29.90;99.90;;;;;;5001650;28;20992;-68
2023/09/07 12:47:43;;;;;;;5.43;4.93;;;29.90;99.90;;;;;;4990145;28;20466;-67
2023/09/07 12:52:57;;;;;;;4.20;3.90;;;29.70;99.90;;;;;;5609233;22;20504;-68
2023/09/07 12:55:25;;;;;;;4.03;3.70;;;29.90;99.90;;;;;;5013524;28;20514;-67
2023/09/07 12:57:52;;;;;;;5.07;4.67;;;29.90;99.90;;;;;;5020579;28;20464;-68
2023/09/07 13:00:20;;;;;;;4.50;4.20;;;29.90;99.90;;;;;;5008616;28;20468;-68
2023/09/07 13:02:46;;;;;;;4.53;4.20;;;29.90;99.90;;;;;;5027327;28;20486;-68
2023/09/07 13:05:13;;;;;;;4.40;4.03;;;29.90;99.90;;;;;;5032190;28;20464;-67
2023/09/07 13:07:40;;;;;;;4.13;3.70;;;29.90;99.90;;;;;;5031970;28;20457;-67
2023/09/07 13:10:08;;;;;;;3.90;3.60;;;29.90;99.90;;;;;;5031880;28;20522;-67
2023/09/07 13:12:36;;;;;;;4.10;3.80;;;30.00;99.90;;;;;;5031145;28;20477;-67
2023/09/07 13:15:03;;;;;;;4.30;3.70;;;30.00;99.90;;;;;;5031380;28;20464;-67
2023/09/07 13:17:30;;;;;;;4.23;3.83;;;30.00;99.90;;;;;;5032060;28;20460;-67
2023/09/07 13:19:57;;;;;;;4.70;4.30;;;30.00;99.90;;;;;;5031572;28;20483;-67
2023/09/07 13:22:23;;;;;;;3.40;3.13;;;30.00;99.90;;;;;;5025551;28;20480;-67
2023/09/07 13:24:50;;;;;;;4.10;3.80;;;29.90;99.90;;;;;;5031324;28;20878;-67
2023/09/07 13:27:17;;;;;;;4.37;3.90;;;29.90;99.90;;;;;;5025973;28;20455;-67
2023/09/07 13:29:45;;;;;;;3.97;3.67;;;29.80;99.90;;;;;;5025303;28;20465;-67
2023/09/07 13:32:12;;;;;;;4.30;3.93;;;29.80;99.90;;;;;;5021427;28;20481;-67
2023/09/07 13:34:39;;;;;;;3.77;3.47;;;29.90;99.90;;;;;;5026695;28;20505;-68
2023/09/07 13:37:05;;;;;;;3.90;3.60;;;29.90;99.90;;;;;;5013167;28;20528;-68
2023/09/07 13:39:32;;;;;;;3.53;3.23;;;29.90;99.90;;;;;;5017815;28;20452;-69
2023/09/07 13:41:59;;;;;;;4.10;3.70;;;29.90;99.90;;;;;;5014442;28;20992;-67
2023/09/07 13:44:25;;;;;;;4.77;4.37;;;30.00;99.90;;;;;;5012109;28;20458;-68
2023/09/07 13:46:54;;;;;;;4.13;3.70;;;30.00;99.90;;;;;;5012082;28;20457;-67
2023/09/07 13:49:21;;;;;;;4.47;4.07;;;30.00;99.90;;;;;;5024052;28;20899;-67
2023/09/07 13:51:48;;;;;;;4.00;3.70;;;30.10;99.90;;;;;;5015788;28;20477;-68
2023/09/07 13:54:15;;;;;;;4.63;4.23;;;30.10;99.90;;;;;;5023031;28;20464;-68
2023/09/07 13:56:42;;;;;;;4.23;3.87;;;30.10;99.90;;;;;;5017471;28;20482;-68
2023/09/07 13:59:08;;;;;;;3.97;3.67;;;30.10;99.90;;;;;;5011607;28;20515;-68
2023/09/07 14:01:35;;;;;;;4.80;3.57;;;30.10;99.90;;;;;;5011296;28;20485;-68
2023/09/07 14:04:04;;;;;;;4.40;4.00;;;30.20;99.90;;;;;;5012703;28;20457;-68
2023/09/07 14:06:31;;;;;;;3.53;3.23;;;30.20;99.90;;;;;;5018657;28;20875;-68
2023/09/07 14:08:58;;;;;;;4.07;3.63;;;30.20;99.90;;;;;;5018645;28;20453;-68
2023/09/07 14:11:26;;;;;;;4.33;3.20;;;30.10;99.90;;;;;;5011452;28;20492;-68
2023/09/07 14:13:53;;;;;;;4.07;3.77;;;30.20;99.90;;;;;;5011050;28;20475;-68
2023/09/07 14:16:20;;;;;;;4.00;3.70;;;30.10;99.90;;;;;;5011572;28;20988;-68
2023/09/07 14:18:47;;;;;;;3.80;3.50;;;30.20;99.90;;;;;;5011637;28;20886;-68
2023/09/07 14:21:16;;;;;;;3.80;3.40;;;30.20;99.90;;;;;;5103580;23;20503;-64
2023/09/07 14:23:43;;;;;;;3.73;3.43;;;30.20;99.90;;;;;;5031633;28;20484;-64
2023/09/07 14:26:10;;;;;;;4.73;4.23;;;30.10;99.90;;;;;;5031398;28;20456;-64
2023/09/07 14:28:37;;;;;;;3.73;3.43;;;30.10;99.90;;;;;;5018080;28;20960;-64
2023/09/07 14:31:06;;;;;;;4.20;3.80;;;30.10;99.90;;;;;;5011261;28;20520;-64
2023/09/07 14:33:33;;;;;;;4.13;3.83;;;30.10;99.90;;;;;;5011890;28;20464;-64
2023/09/07 14:35:59;;;;;;;4.00;3.70;;;30.10;99.90;;;;;;5011283;28;20482;-64
2023/09/07 14:38:28;;;;;;;3.63;3.33;;;30.10;99.90;;;;;;5011701;28;21117;-64
2023/09/07 14:40:56;;;;;;;3.50;3.20;;;30.10;99.90;;;;;;5011535;28;20535;-64
2023/09/07 14:43:22;;;;;;;3.63;3.33;;;30.10;99.90;;;;;;5003101;28;21105;-64
2023/09/07 14:45:49;;;;;;;3.17;2.90;;;30.10;99.90;;;;;;5011144;28;20461;-64
2023/09/07 14:48:16;;;;;;;3.83;3.53;;;30.00;99.90;;;;;;5011423;28;20861;-64
2023/09/07 14:50:43;;;;;;;3.73;3.43;;;29.90;99.90;;;;;;5011256;28;21022;-65
2023/09/07 14:53:09;;;;;;;4.10;3.30;;;29.90;99.90;;;;;;5010594;28;20457;-64
2023/09/07 14:55:38;;;;;;;3.53;3.30;;;29.90;99.90;;;;;;5011176;28;20458;-65
2023/09/07 14:58:05;;;;;;;4.40;4.00;;;29.90;99.90;;;;;;5011049;28;20464;-64
2023/09/07 15:00:32;;;;;;;3.40;3.10;;;29.90;99.90;;;;;;5011513;28;20516;-64
2023/09/07 15:02:59;;;;;;;4.20;3.83;;;29.90;99.90;;;;;;5010692;28;20462;-64
2023/09/07 15:05:25;;;;;;;3.20;2.90;;;29.90;99.90;;;;;;5010561;28;20457;-64
2023/09/07 15:07:52;;;;;;;3.77;3.47;;;29.90;99.90;;;;;;5010246;28;21757;-65
2023/09/07 15:10:19;;;;;;;3.60;3.27;;;29.80;99.90;;;;;;5010581;28;20462;-64
2023/09/07 15:12:47;;;;;;;3.30;3.00;;;29.80;99.90;;;;;;5010367;28;20819;-64
2023/09/07 15:15:14;;;;;;;3.63;3.33;;;29.90;99.90;;;;;;5010760;28;20465;-64
2023/09/07 15:17:44;;;;;;;3.40;3.10;;;29.80;99.90;;;;;;5010747;28;20485;-65
2023/09/07 15:20:11;;;;;;;4.13;3.73;;;29.80;99.90;;;;;;5006730;28;20471;-64
2023/09/07 15:22:38;;;;;;;4.00;3.57;;;29.60;99.90;;;;;;5009944;28;20493;-64
2023/09/07 15:25:06;;;;;;;3.80;3.47;;;29.60;99.90;;;;;;5009899;28;20469;-65
2023/09/07 15:27:32;;;;;;;3.63;3.23;;;29.50;99.90;;;;;;5009502;28;20457;-65
2023/09/07 15:30:00;;;;;;;3.50;3.20;;;29.50;99.90;;;;;;5008129;28;20468;-64
2023/09/07 15:32:27;;;;;;;4.10;3.80;;;29.50;99.90;;;;;;5009001;28;20473;-64
2023/09/07 15:34:54;;;;;;;3.70;3.40;;;29.50;99.90;;;;;;5009867;28;20464;-64
2023/09/07 15:37:20;;;;;;;4.23;3.33;;;29.40;99.90;;;;;;5010359;28;21047;-64
2023/09/07 15:39:48;;;;;;;4.23;3.80;;;29.40;99.90;;;;;;5009773;28;20866;-64
2023/09/07 15:42:15;;;;;;;3.90;3.60;;;29.30;99.90;;;;;;5009621;28;20484;-64
2023/09/07 15:44:44;;;;;;;3.83;3.43;;;29.20;99.90;;;;;;5009520;28;20460;-64
2023/09/07 15:47:12;;;;;;;4.07;3.73;;;29.10;99.90;;;;;;5010030;28;20532;-65
2023/09/07 15:49:41;;;;;;;3.67;3.37;;;29.00;99.90;;;;;;5009353;28;20461;-65
2023/09/07 15:52:08;;;;;;;3.73;3.43;;;29.00;99.90;;;;;;5009968;28;20921;-64
2023/09/07 15:54:34;;;;;;;4.67;4.20;;;29.00;99.90;;;;;;5010259;28;20548;-64
2023/09/07 15:57:01;;;;;;;3.60;3.30;;;28.80;99.90;;;;;;5007977;28;20481;-64
2023/09/07 15:59:28;;;;;;;3.90;3.50;;;28.80;99.90;;;;;;5009734;28;20941;-64
2023/09/07 16:01:55;;;;;;;3.83;3.00;;;28.70;99.90;;;;;;5008676;28;20481;-64
2023/09/07 16:04:23;;;;;;;3.30;3.00;;;28.70;99.90;;;;;;5008532;28;20457;-64
2023/09/07 16:06:50;;;;;;;4.13;3.43;;;28.70;99.90;;;;;;5009702;28;20453;-64
2023/09/07 16:09:17;;;;;;;3.73;3.40;;;28.60;99.90;;;;;;5009398;28;20473;-64
2023/09/07 16:11:44;;;;;;;3.70;3.40;;;28.60;99.90;;;;;;5008735;28;20477;-64
2023/09/07 16:14:11;;;;;;;3.60;3.30;;;28.50;99.90;;;;;;5009837;28;20568;-64
2023/09/07 16:16:38;;;;;;;4.03;3.50;;;28.50;99.90;;;;;;5009333;28;20480;-64
2023/09/07 16:19:05;;;;;;;3.33;3.13;;;28.40;99.90;;;;;;5009707;28;20513;-64
2023/09/07 16:21:33;;;;;;;3.50;3.23;;;28.30;99.90;;;;;;5008570;28;20481;-64
2023/09/07 16:24:00;;;;;;;4.10;3.70;;;28.20;99.90;;;;;;5009818;28;20979;-64
2023/09/07 16:26:27;;;;;;;3.67;3.37;;;28.20;99.90;;;;;;5005444;28;20454;-64